Time;durP1;ratioP1;P1;durP2;ratioP2;P2;SDS_P1;SDS_P2;PMS_P1;PMS_P2;Temp;Humidity;BMP_temperature;BMP_pressure;BME280_temperature;BME280_humidity;BME280_pressure;Samples;Min_cycle;Max_cycle;Signal;HPM_P1;HPM_P2
2024/01/05 00:02:09;;;;;;;11.50;3.03;;;;;;;5.34;92.37;97657.09;5006935;28;20077;-79
2024/01/05 00:04:34;;;;;;;9.30;3.47;;;;;;;5.52;92.39;97666.59;5007024;28;20044;-79
2024/01/05 00:06:59;;;;;;;11.80;3.70;;;;;;;5.30;91.76;97664.75;5008561;28;20030;-79
2024/01/05 00:09:25;;;;;;;13.93;4.47;;;;;;;4.87;92.88;97674.41;5015602;28;20064;-79
2024/01/05 00:11:51;;;;;;;17.63;3.95;;;;;;;4.36;94.97;97649.78;5013933;28;20149;-77
2024/01/05 00:14:17;;;;;;;16.73;4.50;;;;;;;4.69;95.87;97667.50;5013552;28;20034;-78
2024/01/05 00:16:42;;;;;;;16.13;4.60;;;;;;;4.64;95.78;97666.59;5013823;28;20037;-77
2024/01/05 00:19:08;;;;;;;12.85;4.13;;;;;;;4.36;95.59;97662.97;5011163;28;20022;-79
2024/01/05 00:21:33;;;;;;;16.20;4.68;;;;;;;4.35;95.92;97665.84;5007762;28;20065;-77
2024/01/05 00:23:58;;;;;;;8.20;3.72;;;;;;;4.71;96.63;97648.75;5013250;28;20616;-80
2024/01/05 00:26:25;;;;;;;12.82;3.90;;;;;;;4.86;96.07;97656.91;4994076;28;20509;-79
2024/01/05 00:28:50;;;;;;;13.38;4.03;;;;;;;5.34;94.81;97651.81;5014769;28;20033;-79
2024/01/05 00:31:17;;;;;;;9.90;3.55;;;;;;;5.44;93.80;97653.81;5010999;28;20045;-79
2024/01/05 00:33:43;;;;;;;10.23;3.63;;;;;;;5.48;93.18;97647.78;5014025;28;20029;-80
2024/01/05 00:36:10;;;;;;;16.08;3.80;;;;;;;5.48;92.37;97628.44;5011908;28;20030;-79
2024/01/05 00:38:36;;;;;;;11.93;4.18;;;;;;;5.09;92.44;97635.56;5012506;28;20029;-80
2024/01/05 00:41:02;;;;;;;9.77;4.32;;;;;;;5.27;93.61;97638.75;5011840;28;20080;-78
2024/01/05 00:43:27;;;;;;;12.88;4.00;;;;;;;4.97;93.74;97619.03;5014688;28;20041;-78
2024/01/05 00:45:53;;;;;;;13.02;4.22;;;;;;;5.00;94.25;97632.53;5013133;28;20033;-78
2024/01/05 00:48:18;;;;;;;20.33;4.68;;;;;;;5.09;94.62;97630.28;5014788;28;20084;-78
2024/01/05 00:50:44;;;;;;;13.07;5.53;;;;;;;4.97;94.24;97633.03;5010166;28;20107;-79
2024/01/05 00:53:09;;;;;;;26.08;5.00;;;;;;;5.13;94.47;97626.91;5008568;28;20061;-78
2024/01/05 00:55:34;;;;;;;7.20;3.88;;;;;;;5.28;93.49;97626.34;5011558;28;20030;-78
2024/01/05 00:58:00;;;;;;;15.63;5.10;;;;;;;4.90;93.72;97615.72;5012133;28;20032;-79
2024/01/05 01:00:25;;;;;;;16.10;4.22;;;;;;;4.74;94.46;97627.91;5010419;28;20120;-78
2024/01/05 01:02:52;;;;;;;17.48;5.18;;;;;;;4.63;95.96;97626.16;5007831;28;20037;-78
2024/01/05 01:05:17;;;;;;;20.35;5.68;;;;;;;4.41;96.88;97610.22;5007855;28;20034;-79
2024/01/05 01:07:43;;;;;;;20.45;5.93;;;;;;;4.29;97.42;97595.47;5010785;28;20040;-80
2024/01/05 01:10:08;;;;;;;19.30;6.78;;;;;;;4.26;97.58;97609.19;5005609;28;20049;-81
2024/01/05 01:12:34;;;;;;;11.85;4.28;;;;;;;4.83;97.86;97615.91;4994014;28;20050;-80
2024/01/05 01:14:59;;;;;;;19.00;5.85;;;;;;;4.78;96.93;97589.41;5011962;28;20038;-79
2024/01/05 01:17:24;;;;;;;16.85;5.75;;;;;;;4.79;96.57;97598.94;5010980;28;20030;-79
2024/01/05 01:19:50;;;;;;;12.27;4.38;;;;;;;4.86;95.87;97596.94;5009989;28;20080;-80
2024/01/05 01:22:16;;;;;;;13.32;4.70;;;;;;;5.07;95.88;97582.94;5011151;28;20371;-80
2024/01/05 01:24:41;;;;;;;14.60;4.07;;;;;;;5.19;95.47;97585.47;5014430;28;20038;-78
2024/01/05 01:27:06;;;;;;;18.45;4.70;;;;;;;5.03;94.61;97588.94;5009854;28;20146;-80
2024/01/05 01:29:31;;;;;;;8.52;4.35;;;;;;;4.98;94.01;97579.09;5014681;28;20038;-80
2024/01/05 01:31:57;;;;;;;17.85;4.35;;;;;;;5.02;95.10;97592.66;5008309;28;20027;-78
2024/01/05 01:34:22;;;;;;;13.93;3.50;;;;;;;5.19;94.93;97585.47;5013014;28;20030;-79
2024/01/05 01:36:48;;;;;;;8.73;3.50;;;;;;;5.45;94.65;97583.94;4995101;28;20053;-80
2024/01/05 01:39:13;;;;;;;11.43;3.92;;;;;;;5.47;93.44;97580.00;5014640;28;20022;-79
2024/01/05 01:41:40;;;;;;;12.30;3.85;;;;;;;5.24;94.26;97567.81;5009662;28;20160;-80
2024/01/05 01:44:06;;;;;;;8.90;3.65;;;;;;;5.43;93.84;97568.31;5012632;28;21704;-78
2024/01/05 01:46:33;;;;;;;11.95;4.07;;;;;;;5.61;93.34;97562.72;5008641;28;20026;-78
2024/01/05 01:48:59;;;;;;;11.77;3.60;;;;;;;5.59;92.85;97571.94;5012637;28;20036;-81
2024/01/05 01:51:24;;;;;;;13.63;4.13;;;;;;;5.51;93.28;97565.25;5012387;28;20101;-81
2024/01/05 01:53:52;;;;;;;11.73;3.67;;;;;;;5.33;93.53;97565.53;5014359;28;20069;-78
2024/01/05 01:56:18;;;;;;;15.35;4.97;;;;;;;5.06;94.20;97559.38;5011471;28;20040;-81
2024/01/05 01:58:44;;;;;;;13.30;3.25;;;;;;;5.37;95.32;97548.16;5010406;28;20117;-79
2024/01/05 02:01:11;;;;;;;13.57;4.45;;;;;;;5.17;93.91;97547.91;5007024;28;20037;-81
2024/01/05 02:03:37;;;;;;;15.30;4.22;;;;;;;4.89;95.55;97524.28;5011743;28;20032;-81
2024/01/05 02:06:02;;;;;;;13.88;4.80;;;;;;;5.39;95.62;97527.53;5011306;28;20029;-80
2024/01/05 02:08:27;;;;;;;11.63;3.92;;;;;;;5.16;95.28;97527.78;5010424;28;20040;-78
2024/01/05 02:10:53;;;;;;;10.88;3.53;;;;;;;5.40;94.44;97523.84;5012613;28;20033;-80
2024/01/05 02:13:19;;;;;;;8.32;2.83;;;;;;;5.14;94.91;97496.28;5006691;28;20390;-79
2024/01/05 02:15:45;;;;;;;8.18;3.80;;;;;;;5.44;94.11;97516.22;5006229;28;20755;-78
2024/01/05 02:18:14;;;;;;;7.45;3.55;;;;;;;5.46;94.49;97509.59;5006451;28;20053;-79
2024/01/05 02:20:44;;;;;;;10.13;4.25;;;;;;;5.29;93.86;97477.94;5009891;28;20089;-78
2024/01/05 02:23:23;;;;;;;15.40;4.25;;;;;;;5.33;94.46;97484.34;5003849;28;20384;-78
2024/01/05 02:25:48;;;;;;;11.13;4.75;;;;;;;5.09;94.78;97487.50;5013578;28;20026;-78
2024/01/05 02:28:14;;;;;;;15.77;3.92;;;;;;;4.90;95.30;97484.38;5010850;28;20407;-79
2024/01/05 02:30:39;;;;;;;12.98;3.88;;;;;;;5.24;95.24;97485.03;5003269;28;20129;-81
2024/01/05 02:33:04;;;;;;;12.43;4.35;;;;;;;5.21;95.79;97480.25;5005130;28;20029;-80
2024/01/05 02:35:30;;;;;;;12.93;3.92;;;;;;;5.35;94.91;97465.59;5000494;28;20033;-82
2024/01/05 02:37:55;;;;;;;13.50;4.13;;;;;;;5.29;94.20;97470.00;5003751;28;20022;-82
2024/01/05 02:40:20;;;;;;;17.70;4.32;;;;;;;5.10;95.01;97450.25;5004307;28;20377;-80
2024/01/05 02:42:46;;;;;;;10.60;3.45;;;;;;;5.47;95.08;97457.50;5007579;28;20042;-81
2024/01/05 02:45:12;;;;;;;12.57;3.67;;;;;;;5.39;94.27;97450.81;5009617;28;20059;-81
2024/01/05 02:47:37;;;;;;;11.20;4.40;;;;;;;5.30;94.58;97457.59;5012168;28;20021;-81
2024/01/05 02:50:03;;;;;;;12.23;5.20;;;;;;;5.14;94.48;97453.19;5010175;28;20044;-80
2024/01/05 02:52:28;;;;;;;16.00;4.18;;;;;;;5.15;95.99;97450.31;5013033;28;20044;-81
2024/01/05 02:54:53;;;;;;;18.27;4.72;;;;;;;5.04;95.52;97445.13;5008603;28;20037;-81
2024/01/05 02:57:19;;;;;;;7.93;3.97;;;;;;;5.34;94.99;97445.47;5005401;28;20061;-78
2024/01/05 02:59:44;;;;;;;11.13;3.67;;;;;;;5.45;94.48;97444.53;5008795;28;20057;-79
2024/01/05 03:02:09;;;;;;;9.10;3.35;;;;;;;5.54;93.54;97440.38;5004165;28;20041;-77
2024/01/05 03:04:35;;;;;;;9.82;4.18;;;;;;;5.69;93.06;97443.16;5006063;28;20200;-77
2024/01/05 03:07:00;;;;;;;19.33;5.43;;;;;;;5.33;93.53;97434.06;5005108;28;20034;-78
2024/01/05 03:09:25;;;;;;;9.35;3.63;;;;;;;5.70;94.04;97442.09;5002303;28;20046;-77
2024/01/05 03:11:50;;;;;;;9.70;3.42;;;;;;;5.75;92.70;97436.06;5006254;28;20076;-78
2024/01/05 03:14:16;;;;;;;9.90;3.60;;;;;;;5.73;92.62;97420.44;5005464;28;20076;-79
2024/01/05 03:16:41;;;;;;;5.45;2.75;;;;;;;5.77;92.19;97432.09;5006346;28;20085;-77
2024/01/05 03:19:06;;;;;;;9.55;3.97;;;;;;;5.70;92.09;97431.50;5006049;28;20044;-78
2024/01/05 03:21:32;;;;;;;8.70;3.58;;;;;;;5.67;93.10;97432.03;5003798;28;20455;-78
2024/01/05 03:23:57;;;;;;;13.32;4.72;;;;;;;5.72;92.02;97431.28;5004051;28;20030;-77
2024/01/05 03:26:22;;;;;;;15.77;4.45;;;;;;;5.45;93.20;97410.13;5002557;28;20033;-79
2024/01/05 03:28:48;;;;;;;15.10;4.82;;;;;;;5.67;92.34;97434.69;5005689;28;20109;-78
2024/01/05 03:31:13;;;;;;;13.07;5.05;;;;;;;5.55;93.18;97418.16;5007932;28;20030;-77
2024/01/05 03:33:39;;;;;;;13.77;5.03;;;;;;;5.49;93.78;97395.34;5005980;28;20038;-78
2024/01/05 03:36:05;;;;;;;13.38;3.85;;;;;;;5.78;93.36;97409.88;5004789;28;20494;-78
2024/01/05 03:38:30;;;;;;;13.23;4.15;;;;;;;5.85;93.33;97412.34;5006251;28;20038;-78
2024/01/05 03:40:56;;;;;;;12.50;5.03;;;;;;;5.56;92.44;97397.78;5004369;28;20040;-77
2024/01/05 03:43:22;;;;;;;15.13;4.68;;;;;;;5.57;93.83;97399.38;5005202;28;20124;-76
2024/01/05 03:45:47;;;;;;;11.00;5.53;;;;;;;5.58;93.46;97395.69;5003377;28;20068;-78
2024/01/05 03:48:14;;;;;;;12.57;3.85;;;;;;;5.63;93.82;97385.16;5004384;28;20056;-78
2024/01/05 03:50:39;;;;;;;18.75;5.10;;;;;;;5.66;93.19;97390.72;5006629;28;20105;-78
2024/01/05 03:53:05;;;;;;;8.30;3.97;;;;;;;5.81;92.89;97395.34;5009464;28;20498;-78
2024/01/05 03:55:30;;;;;;;14.70;5.00;;;;;;;5.65;93.21;97399.72;5006775;28;20026;-78
2024/01/05 03:57:56;;;;;;;20.85;4.75;;;;;;;5.32;94.08;97378.78;5014237;28;20034;-78
2024/01/05 04:00:21;;;;;;;12.73;4.90;;;;;;;5.41;95.31;97387.88;5013828;28;20088;-78
2024/01/05 04:02:46;;;;;;;15.60;6.55;;;;;;;5.28;94.63;97383.00;5012880;28;20045;-78
2024/01/05 04:05:12;;;;;;;15.73;6.05;;;;;;;5.22;96.12;97371.53;5012332;28;20509;-77
2024/01/05 04:07:38;;;;;;;13.48;5.55;;;;;;;5.36;95.36;97342.84;5012190;28;20030;-79
2024/01/05 04:10:05;;;;;;;16.92;5.22;;;;;;;5.57;95.55;97362.34;5012808;28;20113;-77
2024/01/05 04:12:30;;;;;;;19.65;5.60;;;;;;;5.59;94.76;97365.53;5011534;28;20069;-77
2024/01/05 04:14:55;;;;;;;16.63;4.75;;;;;;;5.74;93.28;97363.81;5009712;28;20056;-81
2024/01/05 04:17:21;;;;;;;11.40;4.05;;;;;;;5.71;93.65;97364.31;5007953;28;20026;-79
2024/01/05 04:19:47;;;;;;;7.40;4.50;;;;;;;5.79;93.04;97350.59;5009512;28;20457;-77
2024/01/05 04:22:12;;;;;;;12.07;4.55;;;;;;;5.43;93.99;97354.03;5010214;28;20505;-79
2024/01/05 04:24:37;;;;;;;10.70;4.93;;;;;;;5.60;94.43;97344.09;5008658;28;20037;-80
2024/01/05 04:27:03;;;;;;;12.73;5.13;;;;;;;5.37;95.58;97347.09;5007564;28;20121;-79
2024/01/05 04:29:28;;;;;;;19.58;5.95;;;;;;;5.22;95.02;97325.81;5008298;28;20080;-80
2024/01/05 04:31:54;;;;;;;10.30;4.72;;;;;;;5.02;96.58;97331.69;5008338;28;20041;-80
2024/01/05 04:34:19;;;;;;;11.75;5.20;;;;;;;5.12;96.87;97336.28;5011013;28;20298;-78
2024/01/05 04:36:44;;;;;;;17.95;6.22;;;;;;;5.15;97.40;97341.06;5008966;28;20045;-77
2024/01/05 04:39:10;;;;;;;12.52;4.80;;;;;;;5.43;96.03;97324.91;5007657;28;20036;-79
2024/01/05 04:41:36;;;;;;;19.30;7.65;;;;;;;5.11;96.06;97330.19;5015473;28;20382;-79
2024/01/05 04:44:01;;;;;;;19.92;5.53;;;;;;;5.06;96.78;97318.78;5010267;28;20490;-78
2024/01/05 04:46:26;;;;;;;17.95;5.03;;;;;;;5.37;96.34;97330.41;5013921;28;20033;-79
2024/01/05 04:48:52;;;;;;;16.55;5.63;;;;;;;5.30;96.01;97322.69;5008597;28;20053;-80
2024/01/05 04:51:17;;;;;;;16.15;5.13;;;;;;;5.13;97.12;97319.38;5013569;28;20033;-78
2024/01/05 04:53:43;;;;;;;23.02;6.60;;;;;;;4.99;97.30;97307.59;5009607;28;20038;-79
2024/01/05 04:56:08;;;;;;;21.83;5.25;;;;;;;5.30;96.50;97317.41;5010085;28;20037;-81
2024/01/05 04:58:33;;;;;;;13.85;5.32;;;;;;;5.44;95.97;97315.91;4987516;28;20045;-80
2024/01/05 05:00:59;;;;;;;11.80;4.90;;;;;;;5.08;96.46;97284.94;5005735;28;20064;-82
2024/01/05 05:03:26;;;;;;;17.25;5.50;;;;;;;5.31;96.33;97314.50;5032122;22;20037;-75
2024/01/05 05:05:51;;;;;;;30.25;5.97;;;;;;;5.19;95.72;97313.06;5021366;28;20029;-75
2024/01/05 05:08:17;;;;;;;12.98;4.90;;;;;;;5.49;95.35;97312.50;5039664;28;20017;-75
2024/01/05 05:10:43;;;;;;;15.80;4.95;;;;;;;5.41;95.23;97315.63;5027042;28;21486;-75
2024/01/05 05:13:09;;;;;;;13.43;4.03;;;;;;;5.14;96.11;97311.19;5026616;28;20065;-75
2024/01/05 05:15:35;;;;;;;18.77;5.85;;;;;;;5.40;96.78;97314.81;5022348;28;20076;-75
2024/01/05 05:18:00;;;;;;;13.90;5.00;;;;;;;5.48;95.65;97316.22;5022007;28;20445;-75
2024/01/05 05:20:26;;;;;;;18.27;5.13;;;;;;;5.44;94.51;97318.56;5022292;28;20109;-76
2024/01/05 05:22:51;;;;;;;15.50;4.75;;;;;;;5.52;95.81;97317.31;5021169;28;20116;-76
2024/01/05 05:25:16;;;;;;;12.20;4.75;;;;;;;5.56;94.68;97310.44;5020865;28;20155;-76
2024/01/05 05:27:42;;;;;;;11.57;4.93;;;;;;;5.54;95.31;97316.00;5023371;28;20555;-75
2024/01/05 05:30:08;;;;;;;18.65;4.63;;;;;;;5.39;95.40;97301.88;5021396;28;20163;-76
2024/01/05 05:32:35;;;;;;;19.08;4.72;;;;;;;5.51;94.90;97311.22;5018322;28;20059;-76
2024/01/05 05:35:00;;;;;;;18.52;4.95;;;;;;;5.48;95.23;97303.81;5021335;28;20128;-76
2024/01/05 05:37:25;;;;;;;12.05;5.53;;;;;;;5.58;94.79;97311.81;5020829;28;20588;-77
2024/01/05 05:39:51;;;;;;;21.98;4.10;;;;;;;5.60;95.57;97314.19;5021164;28;20046;-75
2024/01/05 05:42:16;;;;;;;12.82;5.18;;;;;;;5.79;94.09;97308.22;5020241;28;20080;-76
2024/01/05 05:44:41;;;;;;;12.40;4.82;;;;;;;5.64;94.73;97313.44;5025830;28;20068;-76
2024/01/05 05:47:07;;;;;;;10.23;4.35;;;;;;;5.77;93.32;97307.69;5023748;28;20018;-76
2024/01/05 05:49:32;;;;;;;10.85;3.90;;;;;;;5.71;94.27;97319.31;5024831;28;20030;-76
2024/01/05 05:51:57;;;;;;;9.75;4.22;;;;;;;5.57;95.23;97310.19;5022072;28;20060;-75
2024/01/05 05:54:23;;;;;;;11.48;4.65;;;;;;;5.58;94.78;97308.34;5023498;28;20038;-75
2024/01/05 05:56:48;;;;;;;9.90;3.97;;;;;;;5.46;96.08;97303.22;5023508;28;20061;-75
2024/01/05 05:59:14;;;;;;;16.08;4.53;;;;;;;5.47;95.99;97304.84;5023823;28;20115;-76
2024/01/05 06:01:39;;;;;;;14.15;5.03;;;;;;;5.66;94.98;97307.88;5023494;28;20055;-76
2024/01/05 06:04:07;;;;;;;11.63;4.78;;;;;;;5.74;94.75;97305.56;5026790;28;20040;-75
2024/01/05 06:06:33;;;;;;;17.10;5.40;;;;;;;5.70;94.66;97308.97;5024664;28;20083;-74
2024/01/05 06:08:59;;;;;;;11.75;4.38;;;;;;;5.63;94.17;97317.13;5025046;28;20022;-75
2024/01/05 06:11:26;;;;;;;14.50;3.85;;;;;;;5.57;94.49;97312.84;5025760;28;20041;-75
2024/01/05 06:13:52;;;;;;;13.98;3.67;;;;;;;5.74;95.25;97305.56;5020106;28;20041;-75
2024/01/05 06:16:17;;;;;;;15.45;3.90;;;;;;;5.60;95.60;97309.69;5026222;28;20025;-76
2024/01/05 06:18:43;;;;;;;11.30;3.75;;;;;;;5.70;95.17;97306.34;5025900;28;20033;-76
2024/01/05 06:21:08;;;;;;;8.00;4.13;;;;;;;5.70;94.56;97307.09;5028838;28;20038;-76
2024/01/05 06:23:34;;;;;;;11.98;3.60;;;;;;;5.65;94.63;97295.69;5025608;28;20034;-75
2024/01/05 06:25:59;;;;;;;9.00;3.33;;;;;;;5.69;94.45;97294.94;5008322;28;20037;-75
2024/01/05 06:28:25;;;;;;;9.75;3.95;;;;;;;5.57;94.74;97293.53;5031164;28;20029;-76
2024/01/05 06:30:50;;;;;;;9.55;3.42;;;;;;;5.72;93.83;97302.34;5007197;28;20163;-75
2024/01/05 06:33:15;;;;;;;12.75;3.78;;;;;;;5.69;94.10;97307.38;5027210;28;20033;-75
2024/01/05 06:35:41;;;;;;;9.88;3.72;;;;;;;5.69;94.29;97294.94;5025302;28;20045;-74
2024/01/05 06:38:07;;;;;;;13.23;3.58;;;;;;;5.78;94.36;97301.34;5029707;28;20068;-75
2024/01/05 06:40:32;;;;;;;19.27;4.63;;;;;;;5.77;93.85;97299.75;5026662;28;20079;-75
2024/01/05 06:42:57;;;;;;;12.68;4.32;;;;;;;5.76;94.16;97295.53;5026999;28;20034;-75
2024/01/05 06:45:26;;;;;;;14.57;3.80;;;;;;;5.63;94.66;97295.16;5028022;28;20040;-74
2024/01/05 06:47:51;;;;;;;11.65;4.80;;;;;;;5.67;94.12;97294.41;5029352;28;20029;-74
2024/01/05 06:50:17;;;;;;;12.93;3.90;;;;;;;5.51;94.92;97295.34;5024228;28;20599;-75
2024/01/05 06:52:43;;;;;;;8.70;3.75;;;;;;;5.56;94.73;97300.66;5027861;28;20037;-75
2024/01/05 06:55:09;;;;;;;15.90;4.50;;;;;;;5.43;95.68;97292.38;5023407;28;20028;-75
2024/01/05 06:57:35;;;;;;;7.75;3.42;;;;;;;5.55;95.24;97285.84;5027085;28;20021;-75
2024/01/05 07:00:09;;;;;;;11.57;3.88;;;;;;;5.55;95.05;97274.47;5024677;28;20111;-75
2024/01/05 07:02:35;;;;;;;9.93;3.40;;;;;;;5.42;95.53;97275.69;5019341;28;20120;-75
2024/01/05 07:05:01;;;;;;;16.40;4.07;;;;;;;5.43;95.19;97273.84;5019373;28;20102;-75
2024/01/05 07:07:26;;;;;;;10.20;3.53;;;;;;;5.46;95.58;97268.84;5019034;28;20069;-76
2024/01/05 07:09:52;;;;;;;12.48;3.85;;;;;;;5.38;96.24;97265.88;5018033;28;20116;-75
2024/01/05 07:12:18;;;;;;;14.75;4.10;;;;;;;5.49;95.80;97262.25;5018595;28;20040;-75
2024/01/05 07:14:43;;;;;;;21.15;3.97;;;;;;;5.37;95.73;97246.56;5017056;28;20037;-75
2024/01/05 07:17:09;;;;;;;10.65;3.40;;;;;;;5.45;95.56;97280.47;5015484;28;20079;-75
2024/01/05 07:19:34;;;;;;;9.18;3.58;;;;;;;5.49;96.31;97276.28;5016424;28;20038;-75
2024/01/05 07:22:00;;;;;;;12.48;3.13;;;;;;;5.42;96.01;97272.25;5015361;28;20038;-74
2024/01/05 07:24:25;;;;;;;11.13;4.00;;;;;;;5.50;95.75;97280.53;5016314;28;20042;-75
2024/01/05 07:26:50;;;;;;;14.23;4.80;;;;;;;5.49;95.53;97276.28;5016643;28;20038;-75
2024/01/05 07:29:16;;;;;;;10.73;4.32;;;;;;;5.41;95.56;97273.31;5014649;28;20037;-75
2024/01/05 07:31:41;;;;;;;12.02;3.83;;;;;;;5.52;95.76;97270.47;5021880;28;20039;-75
2024/01/05 07:34:07;;;;;;;12.50;4.18;;;;;;;5.58;95.73;97280.03;5019597;28;20033;-76
2024/01/05 07:36:32;;;;;;;13.95;3.92;;;;;;;5.50;95.34;97274.44;5013634;28;20026;-76
2024/01/05 07:38:59;;;;;;;11.20;3.80;;;;;;;5.53;95.63;97265.97;5016635;28;20056;-77
2024/01/05 07:41:25;;;;;;;6.93;3.70;;;;;;;5.67;94.75;97273.22;5017663;28;20044;-76
2024/01/05 07:43:50;;;;;;;11.30;3.42;;;;;;;5.61;95.17;97266.31;5015732;28;20041;-77
2024/01/05 07:46:16;;;;;;;8.30;3.50;;;;;;;5.67;94.75;97267.94;5013571;28;20034;-74
2024/01/05 07:48:41;;;;;;;12.73;4.47;;;;;;;5.58;94.92;97271.31;5014055;28;20041;-76
2024/01/05 07:51:07;;;;;;;15.05;4.68;;;;;;;5.61;95.20;97260.22;5016021;28;20045;-75
2024/01/05 07:53:32;;;;;;;10.77;3.30;;;;;;;5.45;95.55;97256.66;5018413;28;20032;-75
2024/01/05 07:56:02;;;;;;;19.15;3.80;;;;;;;5.09;96.55;97255.59;5015619;28;20061;-73
2024/01/05 07:58:28;;;;;;;15.65;3.85;;;;;;;5.41;96.95;97263.53;5021863;28;20029;-75
2024/01/05 08:00:53;;;;;;;9.13;3.53;;;;;;;5.38;96.49;97255.28;5021742;28;20029;-75
2024/01/05 08:03:19;;;;;;;12.45;3.88;;;;;;;5.50;96.37;97240.84;5026288;28;20037;-75
2024/01/05 08:05:45;;;;;;;8.80;3.40;;;;;;;5.68;94.96;97268.75;5022965;28;20135;-75
2024/01/05 08:08:11;;;;;;;9.23;4.20;;;;;;;5.69;95.56;97265.03;5027073;28;20034;-76
2024/01/05 08:10:36;;;;;;;7.80;3.00;;;;;;;5.71;94.93;97266.38;5017790;28;20449;-77
2024/01/05 08:13:02;;;;;;;8.30;3.25;;;;;;;5.71;94.47;97269.00;5021774;28;20091;-76
2024/01/05 08:15:27;;;;;;;14.80;4.55;;;;;;;5.71;94.71;97266.38;5023069;28;20038;-76
2024/01/05 08:17:54;;;;;;;9.73;3.20;;;;;;;5.79;95.50;97268.53;5022258;28;20037;-76
2024/01/05 08:20:19;;;;;;;11.63;3.55;;;;;;;5.74;94.79;97273.00;5021073;28;20496;-76
2024/01/05 08:22:45;;;;;;;12.25;3.13;;;;;;;5.72;94.71;97269.81;5022863;28;20029;-76
2024/01/05 08:25:12;;;;;;;14.93;3.42;;;;;;;5.67;95.08;97265.28;5021810;28;20570;-76
2024/01/05 08:27:38;;;;;;;11.60;3.90;;;;;;;5.52;95.05;97281.06;5022254;28;20482;-76
2024/01/05 08:30:04;;;;;;;15.65;3.95;;;;;;;5.48;96.48;97273.88;5022559;28;20045;-77
2024/01/05 08:32:29;;;;;;;12.80;4.07;;;;;;;5.64;95.58;97267.63;5022488;28;20059;-75
2024/01/05 08:34:55;;;;;;;8.95;3.53;;;;;;;5.38;96.02;97274.59;5025268;28;20489;-75
2024/01/05 08:37:20;;;;;;;16.25;4.68;;;;;;;5.54;96.21;97268.38;5025017;28;20569;-76
2024/01/05 08:39:46;;;;;;;5.53;3.13;;;;;;;5.70;96.13;97271.91;5024937;28;20525;-76
2024/01/05 08:42:11;;;;;;;11.90;3.45;;;;;;;6.01;94.87;97279.00;5022722;28;20112;-75
2024/01/05 08:44:36;;;;;;;8.80;3.88;;;;;;;5.76;95.17;97269.06;5027715;28;20029;-74
2024/01/05 08:47:02;;;;;;;7.50;3.72;;;;;;;5.95;94.05;97269.44;5024666;28;20140;-75
2024/01/05 08:49:27;;;;;;;11.95;4.40;;;;;;;5.85;94.70;97272.81;5026880;28;20107;-76
2024/01/05 08:51:52;;;;;;;10.60;3.80;;;;;;;6.00;94.33;97272.13;5024460;28;20040;-76
2024/01/05 08:54:19;;;;;;;19.10;4.78;;;;;;;5.77;95.07;97280.41;5021119;28;20076;-76
2024/01/05 08:56:44;;;;;;;8.40;3.17;;;;;;;6.02;95.34;97288.53;5023484;28;20060;-75
2024/01/05 08:59:10;;;;;;;15.23;3.58;;;;;;;6.14;93.73;97285.69;5022274;28;20068;-75
2024/01/05 09:01:36;;;;;;;11.10;4.38;;;;;;;6.07;94.79;97285.94;5024229;28;20029;-76
2024/01/05 09:04:02;;;;;;;11.13;3.55;;;;;;;6.13;94.29;97295.47;5013067;28;20029;-74
2024/01/05 09:06:28;;;;;;;13.15;3.42;;;;;;;6.18;93.45;97292.84;5026029;28;20060;-75
2024/01/05 09:08:53;;;;;;;7.47;3.35;;;;;;;6.04;94.54;97284.59;5025366;28;20021;-75
2024/01/05 09:11:19;;;;;;;9.13;3.38;;;;;;;5.92;95.18;97289.28;5022265;28;20082;-76
2024/01/05 09:13:44;;;;;;;11.70;3.78;;;;;;;6.15;93.70;97297.88;5023125;28;20033;-75
2024/01/05 09:16:09;;;;;;;10.68;4.13;;;;;;;6.27;94.15;97301.13;5021092;28;20037;-76
2024/01/05 09:18:38;;;;;;;11.23;3.40;;;;;;;6.13;93.20;97303.44;5022738;28;20029;-75
2024/01/05 09:21:06;;;;;;;6.28;2.78;;;;;;;6.19;94.15;97297.09;5023025;28;20112;-76
2024/01/05 09:23:32;;;;;;;9.27;3.17;;;;;;;6.07;95.47;97309.75;5018181;28;20087;-75
2024/01/05 09:25:57;;;;;;;14.82;4.97;;;;;;;6.01;96.33;97300.97;5024706;28;20041;-75
2024/01/05 09:28:23;;;;;;;15.18;4.57;;;;;;;5.88;97.19;97309.38;5025297;28;20053;-75
2024/01/05 09:30:48;;;;;;;15.52;3.67;;;;;;;5.87;98.44;97305.16;5019891;28;20021;-75
2024/01/05 09:33:15;;;;;;;8.00;3.17;;;;;;;6.29;96.00;97317.56;5016695;28;20042;-75
2024/01/05 09:35:40;;;;;;;17.42;4.13;;;;;;;6.30;94.53;97313.81;5020391;28;20084;-76
2024/01/05 09:38:06;;;;;;;19.05;4.28;;;;;;;6.25;95.25;97301.34;5019916;28;20124;-76
2024/01/05 09:40:31;;;;;;;11.52;4.15;;;;;;;6.44;95.25;97309.66;5018042;28;20124;-74
2024/01/05 09:42:57;;;;;;;10.70;4.13;;;;;;;6.35;94.40;97311.22;5021287;28;20128;-75
2024/01/05 09:45:24;;;;;;;11.32;4.03;;;;;;;6.32;94.85;97322.31;5023689;28;20490;-75
2024/01/05 09:47:50;;;;;;;13.07;3.88;;;;;;;6.31;95.50;97326.03;5023099;28;20040;-75
2024/01/05 09:50:17;;;;;;;11.35;3.38;;;;;;;6.37;94.52;97319.69;5012023;28;20033;-76
2024/01/05 09:52:43;;;;;;;8.88;3.22;;;;;;;6.48;93.78;97305.44;5016637;28;20048;-75
2024/01/05 09:55:08;;;;;;;8.65;2.80;;;;;;;6.27;95.03;97306.41;5015118;28;20049;-75
2024/01/05 09:57:36;;;;;;;4.93;3.00;;;;;;;6.60;94.23;97303.34;5007345;28;20041;-75
2024/01/05 10:00:03;;;;;;;11.68;3.75;;;;;;;6.44;94.31;97297.22;5012986;28;20052;-75
2024/01/05 10:02:36;;;;;;;8.10;2.97;;;;;;;6.59;93.46;97291.16;5014486;28;20032;-76
2024/01/05 10:05:01;;;;;;;9.38;3.03;;;;;;;6.52;94.11;97280.00;5032751;28;20029;-75
2024/01/05 10:07:27;;;;;;;12.20;3.40;;;;;;;6.66;93.53;97286.41;5024363;28;20483;-76
2024/01/05 10:09:54;;;;;;;12.25;3.97;;;;;;;6.55;94.46;97287.44;5027747;28;20065;-75
2024/01/05 10:12:20;;;;;;;17.58;4.65;;;;;;;6.40;95.37;97274.91;5021663;28;20025;-75
2024/01/05 10:14:46;;;;;;;8.05;3.17;;;;;;;6.64;93.73;97272.63;5023107;28;20033;-75
2024/01/05 10:17:13;;;;;;;11.45;3.28;;;;;;;6.69;94.20;97254.06;5019454;28;20502;-75
2024/01/05 10:19:42;;;;;;;7.55;3.30;;;;;;;6.80;92.27;97275.03;5027088;28;20022;-75
2024/01/05 10:22:14;;;;;;;9.23;4.20;;;;;;;6.71;92.77;97275.78;5025338;28;20029;-75
2024/01/05 10:24:41;;;;;;;37.63;4.85;;;;;;;6.69;93.81;97283.22;5029799;28;20033;-75
2024/01/05 10:27:06;;;;;;;12.77;3.55;;;;;;;6.75;93.14;97290.13;5018639;28;20120;-74
2024/01/05 10:29:33;;;;;;;13.50;4.43;;;;;;;6.75;93.29;97287.47;5015450;28;20109;-75
2024/01/05 10:32:11;;;;;;;22.92;6.60;;;;;;;6.78;93.35;97290.41;5013024;28;20033;-74
2024/01/05 10:34:37;;;;;;;29.02;4.97;;;;;;;6.52;94.51;97280.81;5032815;28;20528;-75
2024/01/05 10:37:04;;;;;;;19.75;5.82;;;;;;;6.62;94.31;97269.41;5021830;28;20033;-75
2024/01/05 10:39:30;;;;;;;17.45;4.75;;;;;;;6.70;94.19;97266.28;5020532;28;20037;-76
2024/01/05 10:42:16;;;;;;;28.13;8.57;;;;;;;6.74;93.34;97268.13;5019400;28;20044;-75
2024/01/05 10:44:45;;;;;;;24.42;9.38;;;;;;;6.65;93.11;97261.75;5023021;28;20116;-75
2024/01/05 10:47:14;;;;;;;17.02;5.45;;;;;;;6.64;94.58;97267.31;5021458;28;20026;-76
2024/01/05 10:49:55;;;;;;;19.92;6.35;;;;;;;6.72;93.92;97272.91;5013152;28;20556;-76
2024/01/05 10:52:22;;;;;;;12.75;6.18;;;;;;;6.73;94.04;97268.38;5037328;28;20036;-75
2024/01/05 10:54:50;;;;;;;14.43;6.72;;;;;;;6.79;93.85;97270.00;5019851;28;20067;-75
2024/01/05 10:57:16;;;;;;;15.32;8.40;;;;;;;6.82;92.65;97272.13;5023784;28;20037;-75
2024/01/05 10:59:45;;;;;;;19.17;8.70;;;;;;;6.66;94.24;97262.56;5022286;28;20130;-73
2024/01/05 11:02:21;;;;;;;15.25;7.97;;;;;;;6.71;93.94;97252.75;5023937;28;20029;-76
2024/01/05 11:05:11;;;;;;;21.48;7.85;;;;;;;6.82;93.74;97256.19;5020610;28;20038;-76
2024/01/05 11:07:38;;;;;;;22.52;6.10;;;;;;;6.57;94.80;97251.66;5021129;28;20041;-76
2024/01/05 11:10:24;;;;;;;19.15;6.80;;;;;;;6.84;93.96;97245.34;5022285;28;20037;-75
2024/01/05 11:13:19;;;;;;;22.45;7.40;;;;;;;6.81;93.33;97250.09;5020718;28;20033;-75
2024/01/05 11:16:09;;;;;;;14.85;6.63;;;;;;;6.86;93.24;97245.88;5022674;28;20393;-75
2024/01/05 11:18:43;;;;;;;19.10;6.13;;;;;;;6.86;93.66;97245.88;5018972;28;20034;-76
2024/01/05 11:21:16;;;;;;;28.92;5.80;;;;;;;6.77;93.56;97253.56;5020714;28;20076;-75
2024/01/05 11:23:43;;;;;;;21.27;6.28;;;;;;;6.66;94.23;97250.06;5019591;28;20033;-75
2024/01/05 11:26:29;;;;;;;17.27;5.53;;;;;;;6.68;93.79;97258.56;5019701;28;20075;-75
2024/01/05 11:28:54;;;;;;;13.77;5.50;;;;;;;6.64;94.81;97246.13;5021750;28;20485;-75
2024/01/05 11:31:45;;;;;;;17.23;5.50;;;;;;;6.73;93.97;97237.38;5026898;28;20025;-75